sensor_id;sensor_type;location;lat;lon;timestamp;P1;durP1;ratioP1;P2;durP2;ratioP2
65757;SDS011;52495;52.208;5.158;2023-02-28T00:01:09;7.22;;;2.45;;
65757;SDS011;52495;52.208;5.158;2023-02-28T00:03:36;7.53;;;2.08;;
65757;SDS011;52495;52.208;5.158;2023-02-28T00:06:03;6.88;;;2.42;;
65757;SDS011;52495;52.208;5.158;2023-02-28T00:08:30;6.80;;;2.28;;
65757;SDS011;52495;52.208;5.158;2023-02-28T00:11:00;3.97;;;1.60;;
65757;SDS011;52495;52.208;5.158;2023-02-28T00:13:27;5.68;;;2.30;;
65757;SDS011;52495;52.208;5.158;2023-02-28T00:16:01;6.10;;;2.10;;
65757;SDS011;52495;52.208;5.158;2023-02-28T00:18:30;7.93;;;1.98;;
65757;SDS011;52495;52.208;5.158;2023-02-28T00:20:57;4.65;;;2.00;;
65757;SDS011;52495;52.208;5.158;2023-02-28T00:23:24;5.70;;;2.25;;
65757;SDS011;52495;52.208;5.158;2023-02-28T00:25:50;8.15;;;2.60;;
65757;SDS011;52495;52.208;5.158;2023-02-28T00:28:18;4.53;;;2.50;;
65757;SDS011;52495;52.208;5.158;2023-02-28T00:30:44;13.77;;;2.60;;
65757;SDS011;52495;52.208;5.158;2023-02-28T00:33:13;5.95;;;2.28;;
65757;SDS011;52495;52.208;5.158;2023-02-28T00:35:40;3.97;;;1.85;;
65757;SDS011;52495;52.208;5.158;2023-02-28T00:38:08;4.60;;;2.08;;
65757;SDS011;52495;52.208;5.158;2023-02-28T00:40:35;5.07;;;2.00;;
65757;SDS011;52495;52.208;5.158;2023-02-28T00:43:02;10.82;;;2.72;;
65757;SDS011;52495;52.208;5.158;2023-02-28T00:45:29;4.55;;;2.10;;
65757;SDS011;52495;52.208;5.158;2023-02-28T00:47:56;5.38;;;1.92;;
65757;SDS011;52495;52.208;5.158;2023-02-28T00:50:24;5.75;;;2.53;;
65757;SDS011;52495;52.208;5.158;2023-02-28T00:52:51;6.18;;;2.20;;
65757;SDS011;52495;52.208;5.158;2023-02-28T00:55:19;3.38;;;2.22;;
65757;SDS011;52495;52.208;5.158;2023-02-28T00:57:47;6.15;;;2.40;;
65757;SDS011;52495;52.208;5.158;2023-02-28T01:00:15;4.88;;;2.15;;
65757;SDS011;52495;52.208;5.158;2023-02-28T01:02:42;3.70;;;2.22;;
65757;SDS011;52495;52.208;5.158;2023-02-28T01:05:09;5.13;;;2.45;;
65757;SDS011;52495;52.208;5.158;2023-02-28T01:07:37;4.18;;;2.08;;
65757;SDS011;52495;52.208;5.158;2023-02-28T01:10:04;5.78;;;2.03;;
65757;SDS011;52495;52.208;5.158;2023-02-28T01:12:31;8.45;;;2.55;;
65757;SDS011;52495;52.208;5.158;2023-02-28T01:14:58;6.22;;;2.42;;
65757;SDS011;52495;52.208;5.158;2023-02-28T01:17:25;7.30;;;2.50;;
65757;SDS011;52495;52.208;5.158;2023-02-28T01:19:52;5.25;;;1.90;;
65757;SDS011;52495;52.208;5.158;2023-02-28T01:22:20;3.83;;;2.05;;
65757;SDS011;52495;52.208;5.158;2023-02-28T01:24:48;5.35;;;2.28;;
65757;SDS011;52495;52.208;5.158;2023-02-28T01:27:14;4.45;;;2.60;;
65757;SDS011;52495;52.208;5.158;2023-02-28T01:29:41;4.68;;;1.75;;
65757;SDS011;52495;52.208;5.158;2023-02-28T01:32:08;6.35;;;2.42;;
65757;SDS011;52495;52.208;5.158;2023-02-28T01:34:35;5.25;;;1.90;;
65757;SDS011;52495;52.208;5.158;2023-02-28T01:37:03;3.92;;;1.92;;
65757;SDS011;52495;52.208;5.158;2023-02-28T01:39:29;6.13;;;1.90;;
65757;SDS011;52495;52.208;5.158;2023-02-28T01:41:57;2.22;;;1.50;;
65757;SDS011;52495;52.208;5.158;2023-02-28T01:47:24;4.20;;;2.50;;
65757;SDS011;52495;52.208;5.158;2023-02-28T01:49:55;4.47;;;1.98;;
65757;SDS011;52495;52.208;5.158;2023-02-28T01:52:23;4.68;;;1.52;;
65757;SDS011;52495;52.208;5.158;2023-02-28T01:54:53;2.25;;;1.83;;
65757;SDS011;52495;52.208;5.158;2023-02-28T01:57:25;5.15;;;2.17;;
65757;SDS011;52495;52.208;5.158;2023-02-28T02:00:04;4.07;;;1.70;;
65757;SDS011;52495;52.208;5.158;2023-02-28T02:02:45;8.93;;;2.20;;
65757;SDS011;52495;52.208;5.158;2023-02-28T02:05:15;6.32;;;2.05;;
65757;SDS011;52495;52.208;5.158;2023-02-28T02:07:45;4.60;;;1.95;;
65757;SDS011;52495;52.208;5.158;2023-02-28T02:10:15;6.47;;;2.50;;
65757;SDS011;52495;52.208;5.158;2023-02-28T02:12:55;4.65;;;2.20;;
65757;SDS011;52495;52.208;5.158;2023-02-28T02:15:34;7.82;;;2.30;;
65757;SDS011;52495;52.208;5.158;2023-02-28T02:18:08;7.25;;;2.53;;
65757;SDS011;52495;52.208;5.158;2023-02-28T02:20:46;3.63;;;1.70;;
65757;SDS011;52495;52.208;5.158;2023-02-28T02:23:44;5.32;;;2.35;;
65757;SDS011;52495;52.208;5.158;2023-02-28T02:26:44;5.25;;;2.20;;
65757;SDS011;52495;52.208;5.158;2023-02-28T02:32:44;7.35;;;2.40;;
65757;SDS011;52495;52.208;5.158;2023-02-28T02:35:26;4.93;;;1.80;;
65757;SDS011;52495;52.208;5.158;2023-02-28T02:37:59;3.67;;;1.88;;
65757;SDS011;52495;52.208;5.158;2023-02-28T02:40:35;5.07;;;1.95;;
65757;SDS011;52495;52.208;5.158;2023-02-28T02:43:10;4.63;;;2.05;;
65757;SDS011;52495;52.208;5.158;2023-02-28T02:45:43;5.95;;;2.92;;
65757;SDS011;52495;52.208;5.158;2023-02-28T02:48:15;3.75;;;2.33;;
65757;SDS011;52495;52.208;5.158;2023-02-28T02:50:48;7.05;;;2.50;;
65757;SDS011;52495;52.208;5.158;2023-02-28T02:53:18;4.82;;;2.30;;
65757;SDS011;52495;52.208;5.158;2023-02-28T02:55:50;6.53;;;2.42;;
65757;SDS011;52495;52.208;5.158;2023-02-28T02:58:22;3.80;;;1.90;;
65757;SDS011;52495;52.208;5.158;2023-02-28T03:00:53;4.78;;;2.10;;
65757;SDS011;52495;52.208;5.158;2023-02-28T03:03:23;4.10;;;2.22;;
65757;SDS011;52495;52.208;5.158;2023-02-28T03:05:56;7.25;;;2.28;;
65757;SDS011;52495;52.208;5.158;2023-02-28T03:08:24;3.88;;;2.38;;
65757;SDS011;52495;52.208;5.158;2023-02-28T03:10:55;5.57;;;2.50;;
65757;SDS011;52495;52.208;5.158;2023-02-28T03:13:36;3.35;;;2.00;;
65757;SDS011;52495;52.208;5.158;2023-02-28T03:16:30;8.52;;;2.75;;
65757;SDS011;52495;52.208;5.158;2023-02-28T03:19:15;5.63;;;2.45;;
65757;SDS011;52495;52.208;5.158;2023-02-28T03:22:04;7.47;;;2.65;;
65757;SDS011;52495;52.208;5.158;2023-02-28T03:24:53;9.50;;;3.00;;
65757;SDS011;52495;52.208;5.158;2023-02-28T03:27:24;8.32;;;3.00;;
65757;SDS011;52495;52.208;5.158;2023-02-28T03:29:56;5.10;;;2.50;;
65757;SDS011;52495;52.208;5.158;2023-02-28T03:32:29;6.75;;;2.75;;
65757;SDS011;52495;52.208;5.158;2023-02-28T03:35:02;6.35;;;2.97;;
65757;SDS011;52495;52.208;5.158;2023-02-28T03:37:38;8.25;;;3.42;;
65757;SDS011;52495;52.208;5.158;2023-02-28T03:40:09;6.38;;;3.05;;
65757;SDS011;52495;52.208;5.158;2023-02-28T03:42:39;6.90;;;3.30;;
65757;SDS011;52495;52.208;5.158;2023-02-28T03:45:11;6.38;;;2.72;;
65757;SDS011;52495;52.208;5.158;2023-02-28T03:47:44;5.70;;;2.83;;
65757;SDS011;52495;52.208;5.158;2023-02-28T03:50:16;9.18;;;3.05;;
65757;SDS011;52495;52.208;5.158;2023-02-28T03:52:48;6.30;;;3.38;;
65757;SDS011;52495;52.208;5.158;2023-02-28T03:55:17;7.30;;;3.10;;
65757;SDS011;52495;52.208;5.158;2023-02-28T03:57:49;6.28;;;3.10;;
65757;SDS011;52495;52.208;5.158;2023-02-28T04:00:25;6.85;;;3.67;;
65757;SDS011;52495;52.208;5.158;2023-02-28T04:02:58;8.52;;;3.25;;
65757;SDS011;52495;52.208;5.158;2023-02-28T04:05:25;7.05;;;3.17;;
65757;SDS011;52495;52.208;5.158;2023-02-28T04:07:54;7.82;;;3.80;;
65757;SDS011;52495;52.208;5.158;2023-02-28T04:10:30;8.15;;;3.20;;
65757;SDS011;52495;52.208;5.158;2023-02-28T04:12:57;11.90;;;3.92;;
65757;SDS011;52495;52.208;5.158;2023-02-28T04:15:23;6.68;;;3.53;;
65757;SDS011;52495;52.208;5.158;2023-02-28T04:17:52;6.07;;;3.42;;
65757;SDS011;52495;52.208;5.158;2023-02-28T04:20:19;5.75;;;3.22;;
65757;SDS011;52495;52.208;5.158;2023-02-28T04:22:48;7.85;;;3.45;;
65757;SDS011;52495;52.208;5.158;2023-02-28T04:25:16;7.38;;;3.28;;
65757;SDS011;52495;52.208;5.158;2023-02-28T04:27:43;5.35;;;3.30;;
65757;SDS011;52495;52.208;5.158;2023-02-28T04:30:10;6.18;;;2.85;;
65757;SDS011;52495;52.208;5.158;2023-02-28T04:32:37;6.38;;;3.72;;
65757;SDS011;52495;52.208;5.158;2023-02-28T04:35:04;6.82;;;3.42;;
65757;SDS011;52495;52.208;5.158;2023-02-28T04:37:32;7.18;;;4.03;;
65757;SDS011;52495;52.208;5.158;2023-02-28T04:39:59;7.85;;;4.03;;
65757;SDS011;52495;52.208;5.158;2023-02-28T04:42:28;9.00;;;4.07;;
65757;SDS011;52495;52.208;5.158;2023-02-28T04:45:00;7.18;;;3.33;;
65757;SDS011;52495;52.208;5.158;2023-02-28T04:47:27;8.70;;;4.72;;
65757;SDS011;52495;52.208;5.158;2023-02-28T04:49:55;9.15;;;4.40;;
65757;SDS011;52495;52.208;5.158;2023-02-28T04:52:22;10.57;;;5.32;;
65757;SDS011;52495;52.208;5.158;2023-02-28T04:54:48;11.18;;;5.35;;
65757;SDS011;52495;52.208;5.158;2023-02-28T04:57:15;9.50;;;5.30;;
65757;SDS011;52495;52.208;5.158;2023-02-28T04:59:44;11.30;;;5.80;;
65757;SDS011;52495;52.208;5.158;2023-02-28T05:02:10;9.23;;;5.80;;
65757;SDS011;52495;52.208;5.158;2023-02-28T05:04:37;12.98;;;6.07;;
65757;SDS011;52495;52.208;5.158;2023-02-28T05:07:04;9.50;;;6.10;;
65757;SDS011;52495;52.208;5.158;2023-02-28T05:09:31;9.93;;;5.82;;
65757;SDS011;52495;52.208;5.158;2023-02-28T05:11:59;7.20;;;4.40;;
65757;SDS011;52495;52.208;5.158;2023-02-28T05:14:26;10.45;;;4.68;;
65757;SDS011;52495;52.208;5.158;2023-02-28T05:16:54;9.18;;;4.65;;
65757;SDS011;52495;52.208;5.158;2023-02-28T05:19:21;11.25;;;4.47;;
65757;SDS011;52495;52.208;5.158;2023-02-28T05:21:49;6.45;;;4.32;;
65757;SDS011;52495;52.208;5.158;2023-02-28T05:24:18;7.30;;;3.55;;
65757;SDS011;52495;52.208;5.158;2023-02-28T05:26:48;9.13;;;3.55;;
65757;SDS011;52495;52.208;5.158;2023-02-28T05:29:17;7.63;;;3.55;;
65757;SDS011;52495;52.208;5.158;2023-02-28T05:31:44;4.88;;;2.90;;
65757;SDS011;52495;52.208;5.158;2023-02-28T05:34:13;7.97;;;3.90;;
65757;SDS011;52495;52.208;5.158;2023-02-28T05:36:40;6.97;;;2.97;;
65757;SDS011;52495;52.208;5.158;2023-02-28T05:39:07;6.07;;;2.92;;
65757;SDS011;52495;52.208;5.158;2023-02-28T05:41:38;6.30;;;2.70;;
65757;SDS011;52495;52.208;5.158;2023-02-28T05:44:06;7.30;;;2.95;;
65757;SDS011;52495;52.208;5.158;2023-02-28T05:46:33;7.50;;;3.60;;
65757;SDS011;52495;52.208;5.158;2023-02-28T05:49:00;4.05;;;2.33;;
65757;SDS011;52495;52.208;5.158;2023-02-28T05:51:28;6.63;;;2.85;;
65757;SDS011;52495;52.208;5.158;2023-02-28T05:53:58;4.43;;;2.60;;
65757;SDS011;52495;52.208;5.158;2023-02-28T05:56:25;8.15;;;3.60;;
65757;SDS011;52495;52.208;5.158;2023-02-28T05:58:52;4.88;;;2.80;;
65757;SDS011;52495;52.208;5.158;2023-02-28T06:01:20;7.93;;;3.22;;
65757;SDS011;52495;52.208;5.158;2023-02-28T06:03:56;4.93;;;2.50;;
65757;SDS011;52495;52.208;5.158;2023-02-28T06:06:24;6.68;;;2.50;;
65757;SDS011;52495;52.208;5.158;2023-02-28T06:08:52;5.38;;;2.53;;
65757;SDS011;52495;52.208;5.158;2023-02-28T06:11:19;4.28;;;2.83;;
65757;SDS011;52495;52.208;5.158;2023-02-28T06:13:46;5.68;;;2.70;;
65757;SDS011;52495;52.208;5.158;2023-02-28T06:16:13;5.28;;;2.50;;
65757;SDS011;52495;52.208;5.158;2023-02-28T06:18:40;5.13;;;2.75;;
65757;SDS011;52495;52.208;5.158;2023-02-28T06:21:07;6.50;;;3.25;;
65757;SDS011;52495;52.208;5.158;2023-02-28T06:23:34;6.88;;;2.80;;
65757;SDS011;52495;52.208;5.158;2023-02-28T06:26:02;6.03;;;2.70;;
65757;SDS011;52495;52.208;5.158;2023-02-28T06:28:28;5.38;;;3.10;;
65757;SDS011;52495;52.208;5.158;2023-02-28T06:30:55;5.95;;;3.45;;
65757;SDS011;52495;52.208;5.158;2023-02-28T06:33:23;7.35;;;3.80;;
65757;SDS011;52495;52.208;5.158;2023-02-28T06:35:50;6.10;;;3.40;;
65757;SDS011;52495;52.208;5.158;2023-02-28T06:38:18;9.13;;;3.30;;
65757;SDS011;52495;52.208;5.158;2023-02-28T06:40:45;5.60;;;3.38;;
65757;SDS011;52495;52.208;5.158;2023-02-28T06:43:21;6.75;;;3.53;;
65757;SDS011;52495;52.208;5.158;2023-02-28T06:45:48;5.97;;;3.15;;
65757;SDS011;52495;52.208;5.158;2023-02-28T06:48:14;6.95;;;3.78;;
65757;SDS011;52495;52.208;5.158;2023-02-28T06:50:41;6.28;;;3.60;;
65757;SDS011;52495;52.208;5.158;2023-02-28T06:53:08;6.82;;;3.65;;
65757;SDS011;52495;52.208;5.158;2023-02-28T06:55:37;6.25;;;3.72;;
65757;SDS011;52495;52.208;5.158;2023-02-28T06:58:04;7.22;;;3.60;;
65757;SDS011;52495;52.208;5.158;2023-02-28T07:00:41;5.50;;;3.42;;
65757;SDS011;52495;52.208;5.158;2023-02-28T07:03:09;4.93;;;3.47;;
65757;SDS011;52495;52.208;5.158;2023-02-28T07:05:36;5.95;;;3.45;;
65757;SDS011;52495;52.208;5.158;2023-02-28T07:08:03;6.28;;;3.70;;
65757;SDS011;52495;52.208;5.158;2023-02-28T07:10:31;6.93;;;3.90;;
65757;SDS011;52495;52.208;5.158;2023-02-28T07:12:58;5.38;;;3.38;;
65757;SDS011;52495;52.208;5.158;2023-02-28T07:15:25;6.63;;;3.72;;
65757;SDS011;52495;52.208;5.158;2023-02-28T07:17:53;6.57;;;3.65;;
65757;SDS011;52495;52.208;5.158;2023-02-28T07:20:21;7.35;;;3.28;;
65757;SDS011;52495;52.208;5.158;2023-02-28T07:22:48;6.65;;;3.72;;
65757;SDS011;52495;52.208;5.158;2023-02-28T07:25:21;6.28;;;4.13;;
65757;SDS011;52495;52.208;5.158;2023-02-28T07:27:48;8.25;;;3.40;;
65757;SDS011;52495;52.208;5.158;2023-02-28T07:30:15;6.80;;;3.75;;
65757;SDS011;52495;52.208;5.158;2023-02-28T07:32:42;11.32;;;5.25;;
65757;SDS011;52495;52.208;5.158;2023-02-28T07:35:10;7.55;;;3.88;;
65757;SDS011;52495;52.208;5.158;2023-02-28T07:37:37;6.88;;;3.65;;
65757;SDS011;52495;52.208;5.158;2023-02-28T07:40:05;6.82;;;3.90;;
65757;SDS011;52495;52.208;5.158;2023-02-28T07:42:36;6.28;;;3.47;;
65757;SDS011;52495;52.208;5.158;2023-02-28T07:45:04;6.72;;;3.30;;
65757;SDS011;52495;52.208;5.158;2023-02-28T07:47:31;6.28;;;3.70;;
65757;SDS011;52495;52.208;5.158;2023-02-28T07:49:58;7.18;;;3.78;;
65757;SDS011;52495;52.208;5.158;2023-02-28T07:52:27;7.20;;;4.25;;
65757;SDS011;52495;52.208;5.158;2023-02-28T07:54:53;9.60;;;4.93;;
65757;SDS011;52495;52.208;5.158;2023-02-28T07:57:23;9.70;;;4.45;;
65757;SDS011;52495;52.208;5.158;2023-02-28T07:59:50;4.63;;;3.35;;
65757;SDS011;52495;52.208;5.158;2023-02-28T08:02:17;4.78;;;3.20;;
65757;SDS011;52495;52.208;5.158;2023-02-28T08:04:44;5.82;;;3.80;;
65757;SDS011;52495;52.208;5.158;2023-02-28T08:07:13;5.45;;;3.67;;
65757;SDS011;52495;52.208;5.158;2023-02-28T08:09:41;6.25;;;3.53;;
65757;SDS011;52495;52.208;5.158;2023-02-28T08:12:09;7.57;;;4.35;;
65757;SDS011;52495;52.208;5.158;2023-02-28T08:14:37;6.72;;;3.90;;
65757;SDS011;52495;52.208;5.158;2023-02-28T08:17:05;7.03;;;4.63;;
65757;SDS011;52495;52.208;5.158;2023-02-28T08:19:32;9.05;;;4.47;;
65757;SDS011;52495;52.208;5.158;2023-02-28T08:21:59;8.23;;;4.88;;
65757;SDS011;52495;52.208;5.158;2023-02-28T08:24:26;7.38;;;4.03;;
65757;SDS011;52495;52.208;5.158;2023-02-28T08:26:54;8.05;;;4.80;;
65757;SDS011;52495;52.208;5.158;2023-02-28T08:29:21;5.90;;;4.05;;
65757;SDS011;52495;52.208;5.158;2023-02-28T08:31:48;6.80;;;4.45;;
65757;SDS011;52495;52.208;5.158;2023-02-28T08:34:15;9.18;;;5.47;;
65757;SDS011;52495;52.208;5.158;2023-02-28T08:36:45;8.52;;;5.43;;
65757;SDS011;52495;52.208;5.158;2023-02-28T08:39:14;9.63;;;4.88;;
65757;SDS011;52495;52.208;5.158;2023-02-28T08:41:42;9.25;;;5.57;;
65757;SDS011;52495;52.208;5.158;2023-02-28T08:44:10;8.73;;;5.88;;
65757;SDS011;52495;52.208;5.158;2023-02-28T08:46:37;9.98;;;5.28;;
65757;SDS011;52495;52.208;5.158;2023-02-28T08:49:04;8.65;;;4.70;;
65757;SDS011;52495;52.208;5.158;2023-02-28T08:51:32;9.38;;;5.25;;
65757;SDS011;52495;52.208;5.158;2023-02-28T08:53:59;11.55;;;5.15;;
65757;SDS011;52495;52.208;5.158;2023-02-28T08:56:27;11.10;;;5.43;;
65757;SDS011;52495;52.208;5.158;2023-02-28T08:58:55;6.05;;;4.88;;
65757;SDS011;52495;52.208;5.158;2023-02-28T09:01:25;11.02;;;5.07;;
65757;SDS011;52495;52.208;5.158;2023-02-28T09:03:54;8.68;;;5.03;;
65757;SDS011;52495;52.208;5.158;2023-02-28T09:06:22;6.97;;;4.28;;
65757;SDS011;52495;52.208;5.158;2023-02-28T09:08:50;7.88;;;4.03;;
65757;SDS011;52495;52.208;5.158;2023-02-28T09:11:17;6.50;;;4.00;;
65757;SDS011;52495;52.208;5.158;2023-02-28T09:13:45;7.55;;;3.90;;
65757;SDS011;52495;52.208;5.158;2023-02-28T09:16:13;7.03;;;4.20;;
65757;SDS011;52495;52.208;5.158;2023-02-28T09:18:43;7.28;;;4.10;;
65757;SDS011;52495;52.208;5.158;2023-02-28T09:21:11;6.03;;;3.83;;
65757;SDS011;52495;52.208;5.158;2023-02-28T09:23:40;7.78;;;3.70;;
65757;SDS011;52495;52.208;5.158;2023-02-28T09:26:07;7.05;;;3.72;;
65757;SDS011;52495;52.208;5.158;2023-02-28T09:28:39;6.93;;;3.45;;
65757;SDS011;52495;52.208;5.158;2023-02-28T09:31:05;5.15;;;3.40;;
65757;SDS011;52495;52.208;5.158;2023-02-28T09:33:32;6.70;;;3.83;;
65757;SDS011;52495;52.208;5.158;2023-02-28T09:36:02;6.88;;;3.35;;
65757;SDS011;52495;52.208;5.158;2023-02-28T09:38:30;5.28;;;3.22;;
65757;SDS011;52495;52.208;5.158;2023-02-28T09:40:57;5.18;;;3.40;;
65757;SDS011;52495;52.208;5.158;2023-02-28T09:43:26;5.45;;;3.47;;
65757;SDS011;52495;52.208;5.158;2023-02-28T09:45:59;5.30;;;3.20;;
65757;SDS011;52495;52.208;5.158;2023-02-28T09:48:32;5.72;;;3.90;;
65757;SDS011;52495;52.208;5.158;2023-02-28T09:51:04;5.47;;;3.22;;
65757;SDS011;52495;52.208;5.158;2023-02-28T09:53:37;4.95;;;2.70;;
65757;SDS011;52495;52.208;5.158;2023-02-28T09:56:05;6.07;;;2.60;;
65757;SDS011;52495;52.208;5.158;2023-02-28T09:58:39;7.28;;;3.20;;
65757;SDS011;52495;52.208;5.158;2023-02-28T10:01:12;6.10;;;3.00;;
65757;SDS011;52495;52.208;5.158;2023-02-28T10:03:47;4.53;;;3.00;;
65757;SDS011;52495;52.208;5.158;2023-02-28T10:06:25;3.90;;;2.60;;
65757;SDS011;52495;52.208;5.158;2023-02-28T10:08:56;3.50;;;2.25;;
65757;SDS011;52495;52.208;5.158;2023-02-28T10:11:27;4.37;;;2.70;;
65757;SDS011;52495;52.208;5.158;2023-02-28T10:13:58;4.50;;;2.97;;
65757;SDS011;52495;52.208;5.158;2023-02-28T10:16:31;5.68;;;3.25;;
65757;SDS011;52495;52.208;5.158;2023-02-28T10:19:03;4.57;;;2.58;;
65757;SDS011;52495;52.208;5.158;2023-02-28T10:21:37;4.50;;;2.47;;
65757;SDS011;52495;52.208;5.158;2023-02-28T10:24:11;8.50;;;3.65;;
65757;SDS011;52495;52.208;5.158;2023-02-28T10:26:46;3.70;;;2.40;;
65757;SDS011;52495;52.208;5.158;2023-02-28T10:29:14;8.68;;;2.92;;
65757;SDS011;52495;52.208;5.158;2023-02-28T10:31:41;4.30;;;2.70;;
65757;SDS011;52495;52.208;5.158;2023-02-28T10:34:09;4.82;;;2.60;;
65757;SDS011;52495;52.208;5.158;2023-02-28T10:36:40;5.55;;;2.63;;
65757;SDS011;52495;52.208;5.158;2023-02-28T10:42:01;7.65;;;3.50;;
65757;SDS011;52495;52.208;5.158;2023-02-28T10:44:27;5.55;;;2.40;;
65757;SDS011;52495;52.208;5.158;2023-02-28T10:46:54;4.75;;;2.13;;
65757;SDS011;52495;52.208;5.158;2023-02-28T10:49:24;4.47;;;2.30;;
65757;SDS011;52495;52.208;5.158;2023-02-28T10:51:54;2.70;;;1.70;;
65757;SDS011;52495;52.208;5.158;2023-02-28T10:54:27;2.67;;;1.70;;
65757;SDS011;52495;52.208;5.158;2023-02-28T10:57:06;2.10;;;1.55;;
65757;SDS011;52495;52.208;5.158;2023-02-28T10:59:43;4.40;;;1.70;;
65757;SDS011;52495;52.208;5.158;2023-02-28T11:02:29;2.45;;;1.70;;
65757;SDS011;52495;52.208;5.158;2023-02-28T11:05:25;3.45;;;1.58;;
65757;SDS011;52495;52.208;5.158;2023-02-28T11:07:56;3.88;;;2.10;;
65757;SDS011;52495;52.208;5.158;2023-02-28T11:10:27;3.30;;;2.03;;
65757;SDS011;52495;52.208;5.158;2023-02-28T11:12:59;2.83;;;1.70;;
65757;SDS011;52495;52.208;5.158;2023-02-28T11:15:29;2.25;;;1.65;;
65757;SDS011;52495;52.208;5.158;2023-02-28T11:17:58;2.15;;;1.38;;
65757;SDS011;52495;52.208;5.158;2023-02-28T11:20:28;3.78;;;2.10;;
65757;SDS011;52495;52.208;5.158;2023-02-28T11:22:58;2.63;;;1.70;;
65757;SDS011;52495;52.208;5.158;2023-02-28T11:25:28;3.25;;;1.48;;
65757;SDS011;52495;52.208;5.158;2023-02-28T11:27:57;2.38;;;1.80;;
65757;SDS011;52495;52.208;5.158;2023-02-28T11:30:31;3.75;;;1.70;;
65757;SDS011;52495;52.208;5.158;2023-02-28T11:33:01;2.47;;;1.60;;
65757;SDS011;52495;52.208;5.158;2023-02-28T11:35:44;2.92;;;1.52;;
65757;SDS011;52495;52.208;5.158;2023-02-28T11:38:23;2.83;;;1.60;;
65757;SDS011;52495;52.208;5.158;2023-02-28T11:40:54;3.58;;;2.00;;
65757;SDS011;52495;52.208;5.158;2023-02-28T11:43:35;3.38;;;1.98;;
65757;SDS011;52495;52.208;5.158;2023-02-28T11:46:18;3.75;;;1.83;;
65757;SDS011;52495;52.208;5.158;2023-02-28T11:48:54;3.10;;;1.77;;
65757;SDS011;52495;52.208;5.158;2023-02-28T11:51:30;3.33;;;1.73;;
65757;SDS011;52495;52.208;5.158;2023-02-28T11:54:12;5.28;;;2.25;;
65757;SDS011;52495;52.208;5.158;2023-02-28T11:56:55;4.82;;;1.50;;
65757;SDS011;52495;52.208;5.158;2023-02-28T11:59:33;3.22;;;1.67;;
65757;SDS011;52495;52.208;5.158;2023-02-28T12:02:17;3.92;;;1.90;;
65757;SDS011;52495;52.208;5.158;2023-02-28T12:04:58;2.50;;;1.50;;
65757;SDS011;52495;52.208;5.158;2023-02-28T12:07:39;4.00;;;1.92;;
65757;SDS011;52495;52.208;5.158;2023-02-28T12:10:18;4.13;;;1.80;;
65757;SDS011;52495;52.208;5.158;2023-02-28T12:12:51;2.65;;;1.60;;
65757;SDS011;52495;52.208;5.158;2023-02-28T12:15:33;3.55;;;2.13;;
65757;SDS011;52495;52.208;5.158;2023-02-28T12:18:23;4.32;;;1.85;;
65757;SDS011;52495;52.208;5.158;2023-02-28T12:21:01;4.43;;;1.83;;
65757;SDS011;52495;52.208;5.158;2023-02-28T12:23:45;2.60;;;1.70;;
65757;SDS011;52495;52.208;5.158;2023-02-28T12:26:30;4.03;;;1.90;;
65757;SDS011;52495;52.208;5.158;2023-02-28T12:29:04;2.83;;;1.80;;
65757;SDS011;52495;52.208;5.158;2023-02-28T12:31:42;3.60;;;1.70;;
65757;SDS011;52495;52.208;5.158;2023-02-28T12:34:16;2.42;;;1.70;;
65757;SDS011;52495;52.208;5.158;2023-02-28T12:36:49;3.80;;;1.42;;
65757;SDS011;52495;52.208;5.158;2023-02-28T12:39:18;2.33;;;1.30;;
65757;SDS011;52495;52.208;5.158;2023-02-28T12:41:53;2.80;;;1.65;;
65757;SDS011;52495;52.208;5.158;2023-02-28T12:44:26;2.47;;;1.77;;
65757;SDS011;52495;52.208;5.158;2023-02-28T12:46:58;2.13;;;1.80;;
65757;SDS011;52495;52.208;5.158;2023-02-28T12:49:31;2.40;;;1.75;;
65757;SDS011;52495;52.208;5.158;2023-02-28T12:52:00;2.90;;;1.88;;
65757;SDS011;52495;52.208;5.158;2023-02-28T12:54:29;3.25;;;1.70;;
65757;SDS011;52495;52.208;5.158;2023-02-28T12:57:06;3.40;;;1.80;;
65757;SDS011;52495;52.208;5.158;2023-02-28T12:59:40;3.58;;;1.80;;
65757;SDS011;52495;52.208;5.158;2023-02-28T13:02:17;2.70;;;1.42;;
65757;SDS011;52495;52.208;5.158;2023-02-28T13:05:24;2.63;;;1.70;;
65757;SDS011;52495;52.208;5.158;2023-02-28T13:08:09;3.00;;;1.65;;
65757;SDS011;52495;52.208;5.158;2023-02-28T13:10:50;4.45;;;2.50;;
65757;SDS011;52495;52.208;5.158;2023-02-28T13:13:22;4.28;;;2.17;;
65757;SDS011;52495;52.208;5.158;2023-02-28T13:16:00;3.53;;;2.30;;
65757;SDS011;52495;52.208;5.158;2023-02-28T13:18:30;3.28;;;1.70;;
65757;SDS011;52495;52.208;5.158;2023-02-28T13:21:01;5.85;;;1.92;;
65757;SDS011;52495;52.208;5.158;2023-02-28T13:23:36;2.70;;;1.65;;
65757;SDS011;52495;52.208;5.158;2023-02-28T13:26:05;3.53;;;1.67;;
65757;SDS011;52495;52.208;5.158;2023-02-28T13:44:14;3.42;;;1.80;;
65757;SDS011;52495;52.208;5.158;2023-02-28T13:49:50;4.90;;;2.05;;
65757;SDS011;52495;52.208;5.158;2023-02-28T13:52:21;3.17;;;1.88;;
65757;SDS011;52495;52.208;5.158;2023-02-28T13:54:55;2.47;;;1.50;;
65757;SDS011;52495;52.208;5.158;2023-02-28T13:57:33;3.28;;;1.60;;
65757;SDS011;52495;52.208;5.158;2023-02-28T14:00:15;3.67;;;2.22;;
65757;SDS011;52495;52.208;5.158;2023-02-28T14:06:10;4.25;;;2.20;;
65757;SDS011;52495;52.208;5.158;2023-02-28T14:08:47;2.20;;;1.60;;
65757;SDS011;52495;52.208;5.158;2023-02-28T14:11:25;2.92;;;1.60;;
65757;SDS011;52495;52.208;5.158;2023-02-28T14:13:53;3.60;;;1.98;;
65757;SDS011;52495;52.208;5.158;2023-02-28T14:16:21;2.70;;;1.60;;
65757;SDS011;52495;52.208;5.158;2023-02-28T14:18:55;3.85;;;1.83;;
65757;SDS011;52495;52.208;5.158;2023-02-28T14:21:24;3.13;;;1.98;;
65757;SDS011;52495;52.208;5.158;2023-02-28T14:24:00;3.05;;;1.70;;
65757;SDS011;52495;52.208;5.158;2023-02-28T14:32:44;2.95;;;1.73;;
65757;SDS011;52495;52.208;5.158;2023-02-28T14:35:18;3.17;;;1.70;;
65757;SDS011;52495;52.208;5.158;2023-02-28T14:37:55;5.35;;;1.90;;
65757;SDS011;52495;52.208;5.158;2023-02-28T14:40:25;2.55;;;1.90;;
65757;SDS011;52495;52.208;5.158;2023-02-28T14:42:56;2.75;;;2.17;;
65757;SDS011;52495;52.208;5.158;2023-02-28T14:45:25;2.53;;;2.00;;
65757;SDS011;52495;52.208;5.158;2023-02-28T14:47:55;3.15;;;1.98;;
65757;SDS011;52495;52.208;5.158;2023-02-28T14:50:24;3.03;;;1.98;;
65757;SDS011;52495;52.208;5.158;2023-02-28T14:52:56;3.05;;;1.70;;
65757;SDS011;52495;52.208;5.158;2023-02-28T14:55:25;2.42;;;1.70;;
65757;SDS011;52495;52.208;5.158;2023-02-28T14:57:56;2.92;;;1.88;;
65757;SDS011;52495;52.208;5.158;2023-02-28T15:00:26;2.22;;;1.50;;
65757;SDS011;52495;52.208;5.158;2023-02-28T15:02:54;3.50;;;1.90;;
65757;SDS011;52495;52.208;5.158;2023-02-28T15:05:24;3.92;;;1.60;;
65757;SDS011;52495;52.208;5.158;2023-02-28T15:08:06;3.95;;;2.20;;
65757;SDS011;52495;52.208;5.158;2023-02-28T15:10:39;3.47;;;2.10;;
65757;SDS011;52495;52.208;5.158;2023-02-28T15:13:11;2.85;;;2.10;;
65757;SDS011;52495;52.208;5.158;2023-02-28T15:15:42;4.65;;;1.85;;
65757;SDS011;52495;52.208;5.158;2023-02-28T15:18:14;2.95;;;1.92;;
65757;SDS011;52495;52.208;5.158;2023-02-28T15:20:49;2.60;;;1.80;;
65757;SDS011;52495;52.208;5.158;2023-02-28T15:23:18;3.70;;;2.28;;
65757;SDS011;52495;52.208;5.158;2023-02-28T15:25:46;3.50;;;1.80;;
65757;SDS011;52495;52.208;5.158;2023-02-28T15:28:15;5.05;;;2.05;;
65757;SDS011;52495;52.208;5.158;2023-02-28T15:30:53;3.47;;;2.03;;
65757;SDS011;52495;52.208;5.158;2023-02-28T15:33:22;3.03;;;2.03;;
65757;SDS011;52495;52.208;5.158;2023-02-28T15:35:50;2.67;;;1.92;;
65757;SDS011;52495;52.208;5.158;2023-02-28T15:38:21;3.72;;;2.05;;
65757;SDS011;52495;52.208;5.158;2023-02-28T15:40:51;3.55;;;1.90;;
65757;SDS011;52495;52.208;5.158;2023-02-28T15:43:23;3.53;;;2.17;;
65757;SDS011;52495;52.208;5.158;2023-02-28T15:45:52;4.38;;;2.17;;
65757;SDS011;52495;52.208;5.158;2023-02-28T15:48:24;3.47;;;1.92;;